sensor_id;sensor_type;location;lat;lon;timestamp;pressure;altitude;pressure_sealevel;temperature;humidity
39363;BME280;25088;43.238;23.110;2022-08-20T00:00:10;96028.97;;;23.52;63.58
39363;BME280;25088;43.238;23.110;2022-08-20T00:02:40;96032.16;;;23.38;63.44
39363;BME280;25088;43.238;23.110;2022-08-20T00:05:06;96043.63;;;23.36;64.36
39363;BME280;25088;43.238;23.110;2022-08-20T00:07:32;96039.66;;;23.50;63.13
39363;BME280;25088;43.238;23.110;2022-08-20T00:09:57;95996.63;;;23.35;62.09
39363;BME280;25088;43.238;23.110;2022-08-20T00:12:23;96033.97;;;23.58;61.35
39363;BME280;25088;43.238;23.110;2022-08-20T00:14:48;96021.88;;;23.66;60.92
39363;BME280;25088;43.238;23.110;2022-08-20T00:17:14;96020.63;;;23.64;61.32
39363;BME280;25088;43.238;23.110;2022-08-20T00:19:39;96023.97;;;23.69;61.18
39363;BME280;25088;43.238;23.110;2022-08-20T00:22:05;96006.91;;;23.59;61.74
39363;BME280;25088;43.238;23.110;2022-08-20T00:24:30;96015.06;;;23.64;61.86
39363;BME280;25088;43.238;23.110;2022-08-20T00:26:57;96008.22;;;23.49;62.70
39363;BME280;25088;43.238;23.110;2022-08-20T00:29:22;96003.81;;;23.48;62.94
39363;BME280;25088;43.238;23.110;2022-08-20T00:31:49;96005.88;;;23.51;63.45
39363;BME280;25088;43.238;23.110;2022-08-20T00:34:14;96004.06;;;23.43;62.94
39363;BME280;25088;43.238;23.110;2022-08-20T00:36:40;96001.50;;;23.38;63.54
39363;BME280;25088;43.238;23.110;2022-08-20T00:39:05;95997.56;;;23.39;63.51
39363;BME280;25088;43.238;23.110;2022-08-20T00:41:31;95996.38;;;23.40;62.54
39363;BME280;25088;43.238;23.110;2022-08-20T00:46:28;95969.31;;;23.53;61.60
39363;BME280;25088;43.238;23.110;2022-08-20T00:48:55;95978.09;;;23.67;60.77
39363;BME280;25088;43.238;23.110;2022-08-20T00:51:35;95981.91;;;23.75;60.53
39363;BME280;25088;43.238;23.110;2022-08-20T00:54:13;95979.38;;;23.69;60.94
39363;BME280;25088;43.238;23.110;2022-08-20T00:56:41;95968.94;;;23.66;61.17
39363;BME280;25088;43.238;23.110;2022-08-20T00:59:12;95970.81;;;23.62;61.51
39363;BME280;25088;43.238;23.110;2022-08-20T01:01:39;95970.47;;;23.64;61.65
39363;BME280;25088;43.238;23.110;2022-08-20T01:04:06;95967.91;;;23.59;61.85
39363;BME280;25088;43.238;23.110;2022-08-20T01:06:32;95958.25;;;23.56;61.29
39363;BME280;25088;43.238;23.110;2022-08-20T01:08:57;95950.63;;;23.53;61.74
39363;BME280;25088;43.238;23.110;2022-08-20T01:11:27;95963.94;;;23.60;61.71
39363;BME280;25088;43.238;23.110;2022-08-20T01:13:59;95931.94;;;23.54;61.06
39363;BME280;25088;43.238;23.110;2022-08-20T01:16:29;95946.31;;;23.68;61.01
39363;BME280;25088;43.238;23.110;2022-08-20T01:18:57;95942.94;;;23.62;60.56
39363;BME280;25088;43.238;23.110;2022-08-20T01:21:25;95943.53;;;23.68;60.32
39363;BME280;25088;43.238;23.110;2022-08-20T01:24:09;95932.25;;;23.64;60.17
39363;BME280;25088;43.238;23.110;2022-08-20T01:26:38;95934.53;;;23.75;59.92
39363;BME280;25088;43.238;23.110;2022-08-20T01:29:15;95946.13;;;23.77;59.92
39363;BME280;25088;43.238;23.110;2022-08-20T01:31:42;95943.81;;;23.79;60.38
39363;BME280;25088;43.238;23.110;2022-08-20T01:34:11;95922.09;;;23.44;61.83
39363;BME280;25088;43.238;23.110;2022-08-20T01:36:49;95935.88;;;23.53;61.36
39363;BME280;25088;43.238;23.110;2022-08-20T01:39:18;95936.06;;;23.60;60.83
39363;BME280;25088;43.238;23.110;2022-08-20T01:44:28;95929.06;;;23.78;59.41
39363;BME280;25088;43.238;23.110;2022-08-20T01:46:54;95913.66;;;23.68;59.41
39363;BME280;25088;43.238;23.110;2022-08-20T01:49:29;95904.59;;;23.71;58.90
39363;BME280;25088;43.238;23.110;2022-08-20T01:51:58;95927.91;;;23.79;59.47
39363;BME280;25088;43.238;23.110;2022-08-20T01:54:25;95909.16;;;23.64;60.46
39363;BME280;25088;43.238;23.110;2022-08-20T01:59:20;95913.00;;;23.47;62.37
39363;BME280;25088;43.238;23.110;2022-08-20T02:01:45;95925.25;;;23.42;61.82
39363;BME280;25088;43.238;23.110;2022-08-20T02:04:11;95923.47;;;23.50;60.97
39363;BME280;25088;43.238;23.110;2022-08-20T02:06:41;95922.94;;;23.60;60.34
39363;BME280;25088;43.238;23.110;2022-08-20T02:09:08;95912.16;;;23.59;59.78
39363;BME280;25088;43.238;23.110;2022-08-20T02:11:35;95921.78;;;23.73;59.53
39363;BME280;25088;43.238;23.110;2022-08-20T02:14:03;95917.97;;;23.66;59.22
39363;BME280;25088;43.238;23.110;2022-08-20T02:16:34;95925.00;;;23.76;59.66
39363;BME280;25088;43.238;23.110;2022-08-20T02:19:05;95923.69;;;23.57;60.54
39363;BME280;25088;43.238;23.110;2022-08-20T02:21:35;95922.75;;;23.53;61.18
39363;BME280;25088;43.238;23.110;2022-08-20T02:24:03;95918.84;;;23.42;61.61
39363;BME280;25088;43.238;23.110;2022-08-20T02:26:29;95912.94;;;23.43;61.41
39363;BME280;25088;43.238;23.110;2022-08-20T02:28:55;95897.97;;;23.36;60.83
39363;BME280;25088;43.238;23.110;2022-08-20T02:31:22;95924.00;;;23.56;60.01
39363;BME280;25088;43.238;23.110;2022-08-20T02:33:48;95917.38;;;23.72;59.67
39363;BME280;25088;43.238;23.110;2022-08-20T02:36:15;95916.09;;;23.70;59.68
39363;BME280;25088;43.238;23.110;2022-08-20T02:38:43;95920.78;;;23.82;59.10
39363;BME280;25088;43.238;23.110;2022-08-20T02:41:09;95916.84;;;23.83;58.98
39363;BME280;25088;43.238;23.110;2022-08-20T02:43:35;95918.66;;;23.91;58.51
39363;BME280;25088;43.238;23.110;2022-08-20T02:46:02;95912.28;;;23.90;58.65
39363;BME280;25088;43.238;23.110;2022-08-20T02:48:28;95925.50;;;23.93;58.61
39363;BME280;25088;43.238;23.110;2022-08-20T02:50:57;95900.66;;;23.72;58.71
39363;BME280;25088;43.238;23.110;2022-08-20T02:53:27;95919.47;;;23.91;58.78
39363;BME280;25088;43.238;23.110;2022-08-20T02:55:54;95923.97;;;23.96;58.59
39363;BME280;25088;43.238;23.110;2022-08-20T02:58:20;95926.56;;;23.89;58.59
39363;BME280;25088;43.238;23.110;2022-08-20T03:00:46;95924.16;;;23.87;58.39
39363;BME280;25088;43.238;23.110;2022-08-20T03:03:13;95922.50;;;23.86;58.64
39363;BME280;25088;43.238;23.110;2022-08-20T03:05:41;95928.09;;;23.86;59.21
39363;BME280;25088;43.238;23.110;2022-08-20T03:08:09;95922.13;;;23.72;58.93
39363;BME280;25088;43.238;23.110;2022-08-20T03:10:36;95930.44;;;23.84;58.86
39363;BME280;25088;43.238;23.110;2022-08-20T03:13:03;95912.44;;;23.82;58.32
39363;BME280;25088;43.238;23.110;2022-08-20T03:15:30;95915.59;;;23.96;58.07
39363;BME280;25088;43.238;23.110;2022-08-20T03:17:55;95918.88;;;23.98;57.89
39363;BME280;25088;43.238;23.110;2022-08-20T03:20:23;95907.25;;;23.96;57.92
39363;BME280;25088;43.238;23.110;2022-08-20T03:22:48;95927.66;;;24.00;58.08
39363;BME280;25088;43.238;23.110;2022-08-20T03:25:15;95891.22;;;23.77;58.61
39363;BME280;25088;43.238;23.110;2022-08-20T03:27:41;95921.19;;;23.96;59.25
39363;BME280;25088;43.238;23.110;2022-08-20T03:30:09;95917.81;;;23.75;60.61
39363;BME280;25088;43.238;23.110;2022-08-20T03:32:36;95933.66;;;23.58;61.95
39363;BME280;25088;43.238;23.110;2022-08-20T03:35:04;95926.19;;;23.34;62.51
39363;BME280;25088;43.238;23.110;2022-08-20T03:37:31;95925.25;;;23.30;62.96
39363;BME280;25088;43.238;23.110;2022-08-20T03:39:58;95918.88;;;23.30;62.51
39363;BME280;25088;43.238;23.110;2022-08-20T03:42:24;95920.75;;;23.26;62.19
39363;BME280;25088;43.238;23.110;2022-08-20T03:44:50;95911.22;;;23.27;61.53
39363;BME280;25088;43.238;23.110;2022-08-20T03:47:15;95924.66;;;23.37;62.25
39363;BME280;25088;43.238;23.110;2022-08-20T03:49:41;95929.78;;;23.35;62.48
39363;BME280;25088;43.238;23.110;2022-08-20T03:52:07;95923.66;;;23.17;63.23
39363;BME280;25088;43.238;23.110;2022-08-20T03:54:32;95919.50;;;23.23;62.26
39363;BME280;25088;43.238;23.110;2022-08-20T03:56:59;95930.84;;;23.30;62.21
39363;BME280;25088;43.238;23.110;2022-08-20T03:59:25;95930.22;;;23.37;62.35
39363;BME280;25088;43.238;23.110;2022-08-20T04:01:51;95918.59;;;23.47;61.56
39363;BME280;25088;43.238;23.110;2022-08-20T04:04:16;95924.00;;;23.56;61.23
39363;BME280;25088;43.238;23.110;2022-08-20T04:06:42;95931.44;;;23.52;60.71
39363;BME280;25088;43.238;23.110;2022-08-20T04:09:09;95918.88;;;23.70;60.69
39363;BME280;25088;43.238;23.110;2022-08-20T04:11:34;95906.50;;;23.55;61.46
39363;BME280;25088;43.238;23.110;2022-08-20T04:14:01;95906.59;;;23.59;60.80
39363;BME280;25088;43.238;23.110;2022-08-20T04:16:26;95920.75;;;23.66;60.72
39363;BME280;25088;43.238;23.110;2022-08-20T04:18:52;95918.38;;;23.80;60.40
39363;BME280;25088;43.238;23.110;2022-08-20T04:21:17;95897.78;;;23.85;59.99
39363;BME280;25088;43.238;23.110;2022-08-20T04:23:43;95912.22;;;24.03;59.48
39363;BME280;25088;43.238;23.110;2022-08-20T04:26:08;95914.28;;;24.06;60.03
39363;BME280;25088;43.238;23.110;2022-08-20T04:28:34;95919.69;;;23.98;60.94
39363;BME280;25088;43.238;23.110;2022-08-20T04:31:00;95884.28;;;23.87;61.57
39363;BME280;25088;43.238;23.110;2022-08-20T04:33:28;95909.31;;;23.83;62.85
39363;BME280;25088;43.238;23.110;2022-08-20T04:35:57;95906.16;;;23.85;63.14
39363;BME280;25088;43.238;23.110;2022-08-20T04:38:25;95908.53;;;23.70;64.06
39363;BME280;25088;43.238;23.110;2022-08-20T04:40:51;95919.09;;;23.77;64.43
39363;BME280;25088;43.238;23.110;2022-08-20T04:43:25;95927.19;;;23.82;64.64
39363;BME280;25088;43.238;23.110;2022-08-20T04:45:51;95923.44;;;24.06;63.54
39363;BME280;25088;43.238;23.110;2022-08-20T04:48:18;95920.22;;;24.20;64.10
39363;BME280;25088;43.238;23.110;2022-08-20T04:50:45;95924.84;;;24.28;63.84
39363;BME280;25088;43.238;23.110;2022-08-20T04:53:16;95919.69;;;24.30;64.27
39363;BME280;25088;43.238;23.110;2022-08-20T04:55:43;95927.38;;;24.49;63.72
39363;BME280;25088;43.238;23.110;2022-08-20T04:58:37;95928.66;;;24.67;62.91
39363;BME280;25088;43.238;23.110;2022-08-20T05:01:05;95921.34;;;24.79;61.14
39363;BME280;25088;43.238;23.110;2022-08-20T05:03:32;95938.53;;;24.96;60.59
39363;BME280;25088;43.238;23.110;2022-08-20T05:05:57;95939.47;;;25.20;60.73
39363;BME280;25088;43.238;23.110;2022-08-20T05:08:24;95943.47;;;25.38;61.06
39363;BME280;25088;43.238;23.110;2022-08-20T05:10:51;95933.91;;;25.39;61.91
39363;BME280;25088;43.238;23.110;2022-08-20T05:13:17;95945.41;;;25.53;61.91
39363;BME280;25088;43.238;23.110;2022-08-20T05:15:43;95933.25;;;25.65;61.99
39363;BME280;25088;43.238;23.110;2022-08-20T05:18:16;95941.47;;;25.93;61.52
39363;BME280;25088;43.238;23.110;2022-08-20T05:20:43;95934.84;;;26.01;60.58
39363;BME280;25088;43.238;23.110;2022-08-20T05:23:11;95937.91;;;26.16;60.07
39363;BME280;25088;43.238;23.110;2022-08-20T05:25:38;95940.50;;;26.47;59.98
39363;BME280;25088;43.238;23.110;2022-08-20T05:28:06;95939.34;;;26.75;59.37
39363;BME280;25088;43.238;23.110;2022-08-20T05:30:35;95934.00;;;26.89;57.39
39363;BME280;25088;43.238;23.110;2022-08-20T05:33:05;95936.28;;;27.06;57.92
39363;BME280;25088;43.238;23.110;2022-08-20T05:35:34;95934.75;;;27.39;57.56
39363;BME280;25088;43.238;23.110;2022-08-20T05:38:00;95927.06;;;27.33;57.80
39363;BME280;25088;43.238;23.110;2022-08-20T05:40:26;95928.56;;;27.53;58.87
39363;BME280;25088;43.238;23.110;2022-08-20T05:42:52;95926.56;;;27.53;59.12
39363;BME280;25088;43.238;23.110;2022-08-20T05:45:19;95898.97;;;27.59;58.42
39363;BME280;25088;43.238;23.110;2022-08-20T05:47:45;95921.84;;;27.91;59.30
39363;BME280;25088;43.238;23.110;2022-08-20T05:50:12;95927.81;;;28.23;57.94
39363;BME280;25088;43.238;23.110;2022-08-20T05:52:38;95924.03;;;28.42;56.94
39363;BME280;25088;43.238;23.110;2022-08-20T05:55:06;95921.38;;;28.23;57.05
39363;BME280;25088;43.238;23.110;2022-08-20T05:57:32;95919.03;;;28.69;55.67
39363;BME280;25088;43.238;23.110;2022-08-20T05:59:59;95920.91;;;28.95;55.48
39363;BME280;25088;43.238;23.110;2022-08-20T06:02:27;95923.09;;;29.20;55.73
39363;BME280;25088;43.238;23.110;2022-08-20T06:05:12;95921.94;;;29.31;56.17
39363;BME280;25088;43.238;23.110;2022-08-20T06:07:37;95912.81;;;29.52;55.21
39363;BME280;25088;43.238;23.110;2022-08-20T06:10:05;95916.09;;;29.58;56.18
39363;BME280;25088;43.238;23.110;2022-08-20T06:12:30;95917.47;;;29.96;54.60
39363;BME280;25088;43.238;23.110;2022-08-20T06:14:57;95916.25;;;29.94;51.24
39363;BME280;25088;43.238;23.110;2022-08-20T06:17:23;95912.75;;;30.22;49.70
39363;BME280;25088;43.238;23.110;2022-08-20T06:19:48;95912.34;;;30.27;50.91
39363;BME280;25088;43.238;23.110;2022-08-20T06:22:15;95902.72;;;30.38;48.53
39363;BME280;25088;43.238;23.110;2022-08-20T06:24:40;95901.94;;;30.67;47.33
39363;BME280;25088;43.238;23.110;2022-08-20T06:27:06;95905.97;;;30.62;48.08
39363;BME280;25088;43.238;23.110;2022-08-20T06:29:32;95899.16;;;30.77;47.47
39363;BME280;25088;43.238;23.110;2022-08-20T06:31:59;95899.56;;;30.86;47.69
39363;BME280;25088;43.238;23.110;2022-08-20T06:34:26;95898.34;;;30.91;47.53
39363;BME280;25088;43.238;23.110;2022-08-20T06:36:55;95907.59;;;31.13;45.87
39363;BME280;25088;43.238;23.110;2022-08-20T06:39:22;95902.34;;;31.19;45.65
39363;BME280;25088;43.238;23.110;2022-08-20T06:41:49;95900.75;;;31.14;46.33
39363;BME280;25088;43.238;23.110;2022-08-20T06:44:16;95909.63;;;30.98;45.96
39363;BME280;25088;43.238;23.110;2022-08-20T06:46:43;95902.31;;;31.26;45.19
39363;BME280;25088;43.238;23.110;2022-08-20T06:49:10;95898.66;;;31.50;43.82
39363;BME280;25088;43.238;23.110;2022-08-20T06:51:36;95918.38;;;31.64;41.64
39363;BME280;25088;43.238;23.110;2022-08-20T06:54:03;95926.09;;;31.50;40.71
39363;BME280;25088;43.238;23.110;2022-08-20T06:56:30;95910.28;;;31.84;41.17
39363;BME280;25088;43.238;23.110;2022-08-20T06:58:56;95914.06;;;32.30;39.84
39363;BME280;25088;43.238;23.110;2022-08-20T07:01:22;95903.59;;;32.37;39.30
39363;BME280;25088;43.238;23.110;2022-08-20T07:03:48;95904.00;;;32.88;39.88
39363;BME280;25088;43.238;23.110;2022-08-20T07:06:16;95898.81;;;32.79;38.52
39363;BME280;25088;43.238;23.110;2022-08-20T07:08:43;95906.69;;;32.54;39.17
39363;BME280;25088;43.238;23.110;2022-08-20T07:11:09;95916.06;;;32.96;39.11
39363;BME280;25088;43.238;23.110;2022-08-20T07:13:35;95914.81;;;33.45;38.57
39363;BME280;25088;43.238;23.110;2022-08-20T07:16:03;95908.34;;;33.82;38.63
39363;BME280;25088;43.238;23.110;2022-08-20T07:18:29;95907.19;;;33.76;38.24
39363;BME280;25088;43.238;23.110;2022-08-20T07:20:56;95896.44;;;33.98;38.82
39363;BME280;25088;43.238;23.110;2022-08-20T07:23:23;95888.47;;;34.20;39.78
39363;BME280;25088;43.238;23.110;2022-08-20T07:25:49;95902.38;;;34.38;37.59
39363;BME280;25088;43.238;23.110;2022-08-20T07:28:19;95905.16;;;34.41;37.57
39363;BME280;25088;43.238;23.110;2022-08-20T07:30:46;95900.31;;;34.11;37.59
39363;BME280;25088;43.238;23.110;2022-08-20T07:33:30;95900.44;;;34.31;38.47
39363;BME280;25088;43.238;23.110;2022-08-20T07:35:58;95905.66;;;34.36;37.33
39363;BME280;25088;43.238;23.110;2022-08-20T07:38:25;95903.31;;;34.58;37.77
39363;BME280;25088;43.238;23.110;2022-08-20T07:40:53;95892.13;;;34.75;36.16
39363;BME280;25088;43.238;23.110;2022-08-20T07:43:20;95903.69;;;35.11;37.32
39363;BME280;25088;43.238;23.110;2022-08-20T07:45:52;95909.56;;;35.23;36.13
39363;BME280;25088;43.238;23.110;2022-08-20T07:48:21;95918.97;;;35.40;35.62
39363;BME280;25088;43.238;23.110;2022-08-20T07:50:47;95895.00;;;34.98;36.69
39363;BME280;25088;43.238;23.110;2022-08-20T07:53:14;95920.84;;;35.27;36.69
39363;BME280;25088;43.238;23.110;2022-08-20T07:55:41;95901.16;;;35.83;35.59
39363;BME280;25088;43.238;23.110;2022-08-20T07:58:13;95906.25;;;35.92;35.51
39363;BME280;25088;43.238;23.110;2022-08-20T08:00:40;95901.75;;;36.14;35.68
39363;BME280;25088;43.238;23.110;2022-08-20T08:03:06;95907.53;;;36.11;36.08
39363;BME280;25088;43.238;23.110;2022-08-20T08:05:35;95914.78;;;35.72;36.98
39363;BME280;25088;43.238;23.110;2022-08-20T08:08:04;95897.34;;;35.70;36.94
39363;BME280;25088;43.238;23.110;2022-08-20T08:10:31;95888.78;;;35.73;36.11
39363;BME280;25088;43.238;23.110;2022-08-20T08:13:01;95901.47;;;36.09;35.72
39363;BME280;25088;43.238;23.110;2022-08-20T08:15:29;95892.44;;;36.50;35.01
39363;BME280;25088;43.238;23.110;2022-08-20T08:18:04;95897.28;;;36.69;34.76
39363;BME280;25088;43.238;23.110;2022-08-20T08:20:34;95901.63;;;36.74;35.10
39363;BME280;25088;43.238;23.110;2022-08-20T08:23:05;95904.41;;;36.78;35.15
39363;BME280;25088;43.238;23.110;2022-08-20T08:25:32;95899.22;;;36.56;34.98
39363;BME280;25088;43.238;23.110;2022-08-20T08:27:57;95899.97;;;36.77;34.80
39363;BME280;25088;43.238;23.110;2022-08-20T08:30:25;95901.22;;;37.08;34.85
39363;BME280;25088;43.238;23.110;2022-08-20T08:32:53;95901.56;;;37.43;34.57
39363;BME280;25088;43.238;23.110;2022-08-20T08:35:38;95897.13;;;37.09;34.67
39363;BME280;25088;43.238;23.110;2022-08-20T08:38:04;95896.25;;;37.12;34.66
39363;BME280;25088;43.238;23.110;2022-08-20T08:40:30;95899.09;;;37.74;34.38
39363;BME280;25088;43.238;23.110;2022-08-20T08:42:59;95893.84;;;37.43;34.14
39363;BME280;25088;43.238;23.110;2022-08-20T08:45:33;95894.88;;;37.49;34.57
39363;BME280;25088;43.238;23.110;2022-08-20T08:48:03;95893.84;;;37.43;34.34
39363;BME280;25088;43.238;23.110;2022-08-20T08:50:31;95902.06;;;37.70;34.17
39363;BME280;25088;43.238;23.110;2022-08-20T08:52:59;95882.13;;;37.99;33.72
39363;BME280;25088;43.238;23.110;2022-08-20T08:55:28;95900.03;;;38.55;32.75
39363;BME280;25088;43.238;23.110;2022-08-20T08:57:56;95892.84;;;38.50;32.18
39363;BME280;25088;43.238;23.110;2022-08-20T09:00:24;95905.06;;;39.14;31.96
39363;BME280;25088;43.238;23.110;2022-08-20T09:02:58;95896.72;;;39.20;31.90
39363;BME280;25088;43.238;23.110;2022-08-20T09:05:37;95891.72;;;39.59;31.22
39363;BME280;25088;43.238;23.110;2022-08-20T09:08:07;95899.53;;;39.33;31.16
39363;BME280;25088;43.238;23.110;2022-08-20T09:10:36;95900.84;;;39.66;31.10
39363;BME280;25088;43.238;23.110;2022-08-20T09:13:03;95899.34;;;39.96;29.83
39363;BME280;25088;43.238;23.110;2022-08-20T09:15:29;95899.59;;;39.54;30.76
39363;BME280;25088;43.238;23.110;2022-08-20T09:17:54;95903.69;;;38.93;31.92
39363;BME280;25088;43.238;23.110;2022-08-20T09:20:20;95900.47;;;38.40;32.75
39363;BME280;25088;43.238;23.110;2022-08-20T09:22:45;95897.16;;;38.42;32.67
39363;BME280;25088;43.238;23.110;2022-08-20T09:25:11;95895.81;;;38.97;32.27
39363;BME280;25088;43.238;23.110;2022-08-20T09:27:36;95894.91;;;39.61;31.30
39363;BME280;25088;43.238;23.110;2022-08-20T09:30:03;95898.97;;;38.74;31.28
39363;BME280;25088;43.238;23.110;2022-08-20T09:32:28;95886.78;;;39.12;30.84
39363;BME280;25088;43.238;23.110;2022-08-20T09:34:54;95892.75;;;39.52;30.82
39363;BME280;25088;43.238;23.110;2022-08-20T09:37:22;95889.63;;;39.72;30.13
39363;BME280;25088;43.238;23.110;2022-08-20T09:39:48;95890.25;;;39.89;29.73
39363;BME280;25088;43.238;23.110;2022-08-20T09:42:18;95896.88;;;40.08;29.26
39363;BME280;25088;43.238;23.110;2022-08-20T09:44:44;95905.06;;;40.40;29.41
39363;BME280;25088;43.238;23.110;2022-08-20T09:47:10;95905.41;;;38.78;30.42
39363;BME280;25088;43.238;23.110;2022-08-20T09:49:35;95919.31;;;39.27;30.29
39363;BME280;25088;43.238;23.110;2022-08-20T09:52:03;95908.81;;;38.98;31.04
39363;BME280;25088;43.238;23.110;2022-08-20T09:54:29;95916.47;;;38.21;31.68
39363;BME280;25088;43.238;23.110;2022-08-20T09:57:02;95910.81;;;38.34;31.56
39363;BME280;25088;43.238;23.110;2022-08-20T09:59:29;95903.19;;;37.73;32.61
39363;BME280;25088;43.238;23.110;2022-08-20T10:01:55;95914.75;;;37.82;32.59
39363;BME280;25088;43.238;23.110;2022-08-20T10:04:21;95917.97;;;38.93;32.14
39363;BME280;25088;43.238;23.110;2022-08-20T10:06:47;95919.09;;;38.16;32.14
39363;BME280;25088;43.238;23.110;2022-08-20T10:09:12;95917.31;;;37.93;32.50
39363;BME280;25088;43.238;23.110;2022-08-20T10:11:38;95921.16;;;37.41;33.17
39363;BME280;25088;43.238;23.110;2022-08-20T10:14:03;95920.47;;;36.32;34.19
39363;BME280;25088;43.238;23.110;2022-08-20T10:16:29;95921.63;;;36.14;35.03
39363;BME280;25088;43.238;23.110;2022-08-20T10:18:56;95919.03;;;36.04;35.16
39363;BME280;25088;43.238;23.110;2022-08-20T10:21:22;95923.88;;;35.83;35.48
39363;BME280;25088;43.238;23.110;2022-08-20T10:23:47;95919.19;;;35.96;34.13
39363;BME280;25088;43.238;23.110;2022-08-20T10:26:14;95915.31;;;36.07;35.32
39363;BME280;25088;43.238;23.110;2022-08-20T10:28:41;95919.94;;;35.77;35.40
39363;BME280;25088;43.238;23.110;2022-08-20T10:31:09;95914.63;;;35.79;35.69
39363;BME280;25088;43.238;23.110;2022-08-20T10:33:35;95914.41;;;36.30;35.92
39363;BME280;25088;43.238;23.110;2022-08-20T10:36:09;95914.41;;;36.30;35.82
39363;BME280;25088;43.238;23.110;2022-08-20T10:38:34;95916.19;;;35.17;37.27
39363;BME280;25088;43.238;23.110;2022-08-20T10:41:00;95913.00;;;34.61;38.42
39363;BME280;25088;43.238;23.110;2022-08-20T10:43:25;95908.28;;;34.78;38.33
39363;BME280;25088;43.238;23.110;2022-08-20T10:45:52;95918.97;;;35.40;37.82
39363;BME280;25088;43.238;23.110;2022-08-20T10:48:18;95916.78;;;35.52;37.55
39363;BME280;25088;43.238;23.110;2022-08-20T10:50:44;95907.84;;;36.33;36.06
39363;BME280;25088;43.238;23.110;2022-08-20T10:53:09;95910.19;;;37.23;35.15
39363;BME280;25088;43.238;23.110;2022-08-20T10:55:35;95902.31;;;38.05;33.46
39363;BME280;25088;43.238;23.110;2022-08-20T10:58:04;95905.97;;;38.98;32.41
39363;BME280;25088;43.238;23.110;2022-08-20T11:00:30;95898.47;;;39.87;31.34
39363;BME280;25088;43.238;23.110;2022-08-20T11:02:56;95913.03;;;38.14;32.92
39363;BME280;25088;43.238;23.110;2022-08-20T11:05:21;95901.16;;;36.95;33.57
39363;BME280;25088;43.238;23.110;2022-08-20T11:07:47;95895.47;;;37.12;33.32
39363;BME280;25088;43.238;23.110;2022-08-20T11:10:12;95896.84;;;37.53;32.83
39363;BME280;25088;43.238;23.110;2022-08-20T11:12:38;95896.06;;;38.77;31.90
39363;BME280;25088;43.238;23.110;2022-08-20T11:15:04;95883.09;;;39.37;31.13
39363;BME280;25088;43.238;23.110;2022-08-20T11:17:32;95898.47;;;39.52;30.06
39363;BME280;25088;43.238;23.110;2022-08-20T11:19:58;95902.56;;;38.78;30.58
39363;BME280;25088;43.238;23.110;2022-08-20T11:22:24;95891.16;;;37.53;31.16
39363;BME280;25088;43.238;23.110;2022-08-20T11:24:51;95894.38;;;37.38;31.58
39363;BME280;25088;43.238;23.110;2022-08-20T11:27:29;95891.03;;;38.14;31.40
39363;BME280;25088;43.238;23.110;2022-08-20T11:29:55;95883.81;;;38.51;30.28
39363;BME280;25088;43.238;23.110;2022-08-20T11:32:21;95875.69;;;39.74;29.13
39363;BME280;25088;43.238;23.110;2022-08-20T11:34:47;95865.31;;;40.11;28.05
39363;BME280;25088;43.238;23.110;2022-08-20T11:37:15;95866.41;;;40.98;27.32
39363;BME280;25088;43.238;23.110;2022-08-20T11:39:41;95854.72;;;40.92;27.92
39363;BME280;25088;43.238;23.110;2022-08-20T11:42:08;95838.47;;;40.71;28.54
39363;BME280;25088;43.238;23.110;2022-08-20T11:44:33;95866.22;;;39.86;29.33
39363;BME280;25088;43.238;23.110;2022-08-20T11:47:04;95846.22;;;39.86;29.11
39363;BME280;25088;43.238;23.110;2022-08-20T11:49:35;95857.59;;;40.21;29.21
39363;BME280;25088;43.238;23.110;2022-08-20T11:52:01;95861.13;;;40.25;29.51
39363;BME280;25088;43.238;23.110;2022-08-20T11:54:27;95844.66;;;39.50;30.10
39363;BME280;25088;43.238;23.110;2022-08-20T11:56:54;95836.59;;;39.36;30.67
39363;BME280;25088;43.238;23.110;2022-08-20T11:59:23;95830.47;;;37.97;32.85
39363;BME280;25088;43.238;23.110;2022-08-20T12:01:48;95833.03;;;38.72;32.24
39363;BME280;25088;43.238;23.110;2022-08-20T12:04:14;95836.59;;;39.36;31.05
39363;BME280;25088;43.238;23.110;2022-08-20T12:06:39;95851.72;;;39.24;31.43
39363;BME280;25088;43.238;23.110;2022-08-20T12:09:05;95825.56;;;39.13;31.53
39363;BME280;25088;43.238;23.110;2022-08-20T12:11:30;95869.09;;;37.86;33.00
39363;BME280;25088;43.238;23.110;2022-08-20T12:13:56;95865.84;;;36.93;34.97
39363;BME280;25088;43.238;23.110;2022-08-20T12:16:21;95869.16;;;36.19;35.60
39363;BME280;25088;43.238;23.110;2022-08-20T12:18:47;95870.06;;;35.76;36.59
39363;BME280;25088;43.238;23.110;2022-08-20T12:21:13;95874.22;;;34.54;38.62
39363;BME280;25088;43.238;23.110;2022-08-20T12:23:39;95869.28;;;34.01;40.59
39363;BME280;25088;43.238;23.110;2022-08-20T12:26:04;95857.75;;;33.54;41.10
39363;BME280;25088;43.238;23.110;2022-08-20T12:28:30;95845.22;;;33.13;42.38
39363;BME280;25088;43.238;23.110;2022-08-20T12:30:56;95861.69;;;32.77;43.31
39363;BME280;25088;43.238;23.110;2022-08-20T12:33:22;95855.94;;;32.32;43.69
39363;BME280;25088;43.238;23.110;2022-08-20T12:35:47;95861.72;;;32.14;44.62
39363;BME280;25088;43.238;23.110;2022-08-20T12:38:13;95848.97;;;31.81;44.65
39363;BME280;25088;43.238;23.110;2022-08-20T12:40:39;95846.19;;;31.67;44.62
39363;BME280;25088;43.238;23.110;2022-08-20T12:43:05;95848.69;;;31.54;45.06
39363;BME280;25088;43.238;23.110;2022-08-20T12:45:31;95842.19;;;31.68;45.88
39363;BME280;25088;43.238;23.110;2022-08-20T12:48:03;95856.78;;;31.49;45.89
39363;BME280;25088;43.238;23.110;2022-08-20T12:50:29;95852.78;;;31.35;47.09
39363;BME280;25088;43.238;23.110;2022-08-20T12:52:55;95854.41;;;31.11;49.42
39363;BME280;25088;43.238;23.110;2022-08-20T12:55:20;95854.84;;;30.96;49.82
39363;BME280;25088;43.238;23.110;2022-08-20T12:57:51;95868.94;;;30.81;52.05